Time;durP1;ratioP1;P1;durP2;ratioP2;P2;SDS_P1;SDS_P2;PMS_P1;PMS_P2;Temp;Humidity;BMP_temperature;BMP_pressure;BME280_temperature;BME280_humidity;BME280_pressure;Samples;Min_cycle;Max_cycle;Signal;HPM_P1;HPM_P2
2022/11/30 00:02:21;;;;;;;59.60;28.20;;;;;;;;;;5046372;28;20031;-69
2022/11/30 00:04:46;;;;;;;57.47;27.58;;;;;;;;;;5045481;28;20270;-69
2022/11/30 00:07:11;;;;;;;60.77;27.93;;;;;;;;;;5031609;28;20021;-69
2022/11/30 00:09:37;;;;;;;61.15;29.30;;;;;;;;;;5030870;28;20037;-69
2022/11/30 00:12:02;;;;;;;63.67;28.80;;;;;;;;;;5048840;28;20021;-69
2022/11/30 00:14:27;;;;;;;67.82;29.02;;;;;;;;;;5047235;28;20772;-68
2022/11/30 00:16:53;;;;;;;60.20;28.60;;;;;;;;;;5049651;28;20490;-69
2022/11/30 00:19:18;;;;;;;61.77;29.87;;;;;;;;;;5029212;28;20033;-69
2022/11/30 00:21:43;;;;;;;67.25;29.52;;;;;;;;;;5048043;28;20282;-69
2022/11/30 00:24:08;;;;;;;60.58;28.42;;;;;;;;;;5044375;28;20459;-68
2022/11/30 00:26:34;;;;;;;65.90;29.00;;;;;;;;;;5048620;28;20039;-70
2022/11/30 00:28:59;;;;;;;59.47;28.55;;;;;;;;;;5046133;28;20029;-69
2022/11/30 00:31:24;;;;;;;64.00;29.47;;;;;;;;;;5048243;28;20056;-69
2022/11/30 00:33:49;;;;;;;67.80;28.58;;;;;;;;;;5045825;28;20267;-70
2022/11/30 00:36:16;;;;;;;63.23;28.37;;;;;;;;;;5032685;28;20474;-69
2022/11/30 00:38:41;;;;;;;56.45;27.13;;;;;;;;;;5047509;28;20310;-69
2022/11/30 00:41:07;;;;;;;61.17;28.77;;;;;;;;;;5051171;28;20079;-69
2022/11/30 00:43:32;;;;;;;58.03;27.70;;;;;;;;;;5041894;28;20022;-69
2022/11/30 00:45:57;;;;;;;57.47;27.47;;;;;;;;;;5048343;28;20273;-69
2022/11/30 00:48:23;;;;;;;54.13;25.97;;;;;;;;;;5049118;28;20783;-69
2022/11/30 00:50:48;;;;;;;58.25;27.85;;;;;;;;;;5044566;28;20272;-69
2022/11/30 00:53:14;;;;;;;58.53;26.98;;;;;;;;;;5042343;28;20429;-69
2022/11/30 00:55:39;;;;;;;57.72;26.77;;;;;;;;;;5028335;28;20060;-69
2022/11/30 00:58:06;;;;;;;54.13;25.60;;;;;;;;;;5046391;28;20036;-70
2022/11/30 01:00:31;;;;;;;54.05;26.67;;;;;;;;;;5043083;28;20470;-69
2022/11/30 01:02:58;;;;;;;50.08;25.50;;;;;;;;;;5046829;28;20025;-69
2022/11/30 01:05:23;;;;;;;53.97;26.40;;;;;;;;;;5045979;28;20017;-69
2022/11/30 01:07:49;;;;;;;58.08;27.58;;;;;;;;;;5047672;28;20060;-69
2022/11/30 01:10:14;;;;;;;51.92;25.23;;;;;;;;;;5050589;28;20099;-69
2022/11/30 01:12:39;;;;;;;53.15;25.80;;;;;;;;;;5043352;28;20029;-68
2022/11/30 01:15:05;;;;;;;51.00;24.67;;;;;;;;;;5035444;28;20024;-69
2022/11/30 01:17:30;;;;;;;48.17;23.95;;;;;;;;;;5044299;28;20028;-68
2022/11/30 01:19:55;;;;;;;47.17;24.03;;;;;;;;;;5038680;28;20029;-69
2022/11/30 01:22:20;;;;;;;48.83;23.37;;;;;;;;;;5035917;28;20036;-68
2022/11/30 01:24:46;;;;;;;48.67;22.77;;;;;;;;;;5049125;28;20357;-69
2022/11/30 01:27:11;;;;;;;44.47;22.03;;;;;;;;;;5032169;28;20290;-68
2022/11/30 01:29:36;;;;;;;45.03;22.17;;;;;;;;;;5047716;28;20023;-68
2022/11/30 01:32:01;;;;;;;41.07;20.73;;;;;;;;;;5041763;28;20296;-69
2022/11/30 01:34:27;;;;;;;44.60;21.63;;;;;;;;;;5027095;28;20021;-69
2022/11/30 01:36:52;;;;;;;42.23;20.60;;;;;;;;;;5045728;28;20516;-69
2022/11/30 01:39:17;;;;;;;41.30;20.20;;;;;;;;;;5042582;28;20048;-69
2022/11/30 01:41:42;;;;;;;44.13;21.13;;;;;;;;;;5048156;28;20043;-69
2022/11/30 01:44:13;;;;;;;41.97;21.02;;;;;;;;;;5046627;28;20350;-69
2022/11/30 01:46:48;;;;;;;42.47;20.42;;;;;;;;;;5048256;28;20112;-69
2022/11/30 01:49:20;;;;;;;42.72;19.83;;;;;;;;;;5046032;28;20035;-68
2022/11/30 01:51:47;;;;;;;36.85;19.55;;;;;;;;;;5046890;28;20025;-69
2022/11/30 01:54:17;;;;;;;39.10;19.30;;;;;;;;;;5045129;28;20032;-69
2022/11/30 01:56:45;;;;;;;38.90;18.70;;;;;;;;;;5031830;28;20017;-69
2022/11/30 01:59:11;;;;;;;42.50;19.53;;;;;;;;;;5044118;28;20018;-68
2022/11/30 02:01:36;;;;;;;37.00;18.90;;;;;;;;;;5045662;28;20047;-69
2022/11/30 02:04:14;;;;;;;35.90;17.80;;;;;;;;;;5050120;28;20074;-69
2022/11/30 02:06:39;;;;;;;36.85;18.40;;;;;;;;;;5046569;28;20026;-69
2022/11/30 02:09:04;;;;;;;35.83;17.92;;;;;;;;;;5048493;28;20017;-69
2022/11/30 02:11:29;;;;;;;36.17;18.83;;;;;;;;;;5046696;28;20025;-68
2022/11/30 02:14:03;;;;;;;34.87;17.30;;;;;;;;;;5027503;28;20289;-68
2022/11/30 02:16:34;;;;;;;35.83;17.08;;;;;;;;;;5012907;28;20704;-69
2022/11/30 02:18:59;;;;;;;35.30;17.17;;;;;;;;;;5027228;28;20490;-69
2022/11/30 02:21:28;;;;;;;35.90;17.53;;;;;;;;;;5038864;28;20052;-69
2022/11/30 02:24:12;;;;;;;33.83;17.27;;;;;;;;;;5037418;28;20439;-69
2022/11/30 02:26:50;;;;;;;32.80;15.90;;;;;;;;;;5041740;28;20021;-69
2022/11/30 02:29:21;;;;;;;37.03;16.27;;;;;;;;;;5038438;28;20028;-68
2022/11/30 02:31:46;;;;;;;32.55;15.90;;;;;;;;;;5036996;28;20017;-69
2022/11/30 02:34:13;;;;;;;32.83;16.13;;;;;;;;;;5038466;28;20029;-69
2022/11/30 02:36:39;;;;;;;35.35;16.45;;;;;;;;;;5042731;28;20167;-69
2022/11/30 02:39:04;;;;;;;32.90;16.30;;;;;;;;;;5038513;28;20107;-69
2022/11/30 02:41:36;;;;;;;31.02;15.52;;;;;;;;;;5051334;28;20032;-69
2022/11/30 02:44:03;;;;;;;34.80;16.58;;;;;;;;;;5044650;28;20660;-69
2022/11/30 02:46:38;;;;;;;32.90;16.20;;;;;;;;;;5047369;28;20036;-69
2022/11/30 02:49:04;;;;;;;36.72;16.02;;;;;;;;;;5041300;28;20052;-69
2022/11/30 02:51:30;;;;;;;33.22;16.00;;;;;;;;;;5040491;28;20560;-69
2022/11/30 02:53:56;;;;;;;33.85;16.17;;;;;;;;;;5045351;28;20030;-69
2022/11/30 02:56:21;;;;;;;33.75;16.05;;;;;;;;;;5050052;28;20028;-69
2022/11/30 02:58:47;;;;;;;32.75;16.67;;;;;;;;;;5043835;28;20360;-69
2022/11/30 03:01:12;;;;;;;37.25;17.00;;;;;;;;;;5046080;28;20156;-68
2022/11/30 03:03:37;;;;;;;34.67;17.10;;;;;;;;;;5044272;28;20025;-69
2022/11/30 03:06:03;;;;;;;41.70;18.10;;;;;;;;;;5038758;28;20239;-68
2022/11/30 03:08:28;;;;;;;34.63;16.67;;;;;;;;;;5040419;28;20266;-68
2022/11/30 03:10:53;;;;;;;33.93;17.07;;;;;;;;;;5043734;28;20497;-69
2022/11/30 03:13:18;;;;;;;32.47;16.20;;;;;;;;;;5045611;28;20266;-68
2022/11/30 03:15:44;;;;;;;35.23;17.03;;;;;;;;;;5039056;28;20082;-69
2022/11/30 03:18:09;;;;;;;33.03;16.80;;;;;;;;;;5037277;28;20303;-69
2022/11/30 03:20:38;;;;;;;31.50;16.25;;;;;;;;;;5042962;28;20025;-68
2022/11/30 03:23:03;;;;;;;;;;;;;;;;;;5043845;28;20124;-69
2022/11/30 03:25:29;;;;;;;33.25;17.00;;;;;;;;;;5042878;28;20011;-69
2022/11/30 03:27:54;;;;;;;32.63;16.37;;;;;;;;;;5041888;28;20056;-69
2022/11/30 03:30:19;;;;;;;32.47;16.33;;;;;;;;;;5044813;28;20032;-69
2022/11/30 03:32:44;;;;;;;33.17;16.42;;;;;;;;;;5040900;28;20033;-69
2022/11/30 03:35:10;;;;;;;42.40;18.17;;;;;;;;;;5047242;28;20025;-69
2022/11/30 03:37:35;;;;;;;33.78;17.52;;;;;;;;;;5046540;28;20107;-68
2022/11/30 03:40:00;;;;;;;32.23;16.10;;;;;;;;;;5051639;28;20029;-69
2022/11/30 03:42:25;;;;;;;36.58;17.17;;;;;;;;;;5048978;28;20078;-68
2022/11/30 03:44:51;;;;;;;33.20;18.03;;;;;;;;;;5032692;28;20025;-69
2022/11/30 03:47:16;;;;;;;33.93;16.87;;;;;;;;;;5051945;28;20289;-68
2022/11/30 03:49:41;;;;;;;32.87;16.20;;;;;;;;;;5051730;28;20739;-68
2022/11/30 03:52:06;;;;;;;34.67;16.33;;;;;;;;;;5044133;28;20461;-69
2022/11/30 03:54:32;;;;;;;35.23;17.63;;;;;;;;;;5030666;28;20021;-68
2022/11/30 03:56:57;;;;;;;35.77;17.57;;;;;;;;;;5046756;28;20262;-69
2022/11/30 03:59:22;;;;;;;35.43;16.90;;;;;;;;;;5050799;28;20021;-68
2022/11/30 04:01:47;;;;;;;33.80;17.43;;;;;;;;;;5011722;28;20171;-69
2022/11/30 04:04:12;;;;;;;34.77;16.93;;;;;;;;;;5032912;28;20120;-68
2022/11/30 04:06:39;;;;;;;33.25;15.55;;;;;;;;;;5047192;28;20069;-69
2022/11/30 04:09:04;;;;;;;31.55;15.95;;;;;;;;;;5049503;28;20024;-68
2022/11/30 04:11:29;;;;;;;36.23;17.10;;;;;;;;;;5052017;28;20029;-69
2022/11/30 04:13:55;;;;;;;34.60;17.27;;;;;;;;;;5034828;28;20048;-68
2022/11/30 04:16:20;;;;;;;34.10;16.57;;;;;;;;;;5045499;28;20075;-69
2022/11/30 04:18:45;;;;;;;38.33;18.27;;;;;;;;;;5034516;28;20500;-69
2022/11/30 04:21:10;;;;;;;33.27;16.90;;;;;;;;;;5050286;28;20602;-68
2022/11/30 04:23:37;;;;;;;36.03;17.90;;;;;;;;;;5044036;28;20451;-68
2022/11/30 04:26:03;;;;;;;34.42;17.33;;;;;;;;;;5030475;28;20119;-68
2022/11/30 04:28:28;;;;;;;35.97;17.02;;;;;;;;;;5046765;28;20544;-69
2022/11/30 04:30:54;;;;;;;36.27;17.73;;;;;;;;;;5035305;28;20033;-68
2022/11/30 04:33:19;;;;;;;35.28;17.27;;;;;;;;;;5044423;28;20525;-69
2022/11/30 04:35:46;;;;;;;35.03;17.70;;;;;;;;;;5046674;28;20029;-70
2022/11/30 04:38:11;;;;;;;37.75;17.67;;;;;;;;;;5028552;28;20651;-69
2022/11/30 04:40:39;;;;;;;37.73;18.40;;;;;;;;;;5043645;28;20040;-69
2022/11/30 04:43:05;;;;;;;38.55;18.83;;;;;;;;;;5048480;28;20108;-69
2022/11/30 04:45:30;;;;;;;37.63;17.92;;;;;;;;;;5044920;28;20103;-68
2022/11/30 04:47:55;;;;;;;39.17;18.10;;;;;;;;;;5044577;28;20104;-69
2022/11/30 04:50:20;;;;;;;35.73;17.60;;;;;;;;;;5045958;28;20036;-69
2022/11/30 04:52:46;;;;;;;34.53;16.83;;;;;;;;;;5035804;28;20407;-68
2022/11/30 04:55:11;;;;;;;32.67;16.67;;;;;;;;;;5042994;28;20028;-69
2022/11/30 04:57:36;;;;;;;33.25;16.42;;;;;;;;;;5038129;28;20265;-69
2022/11/30 05:00:02;;;;;;;34.60;17.27;;;;;;;;;;5043120;28;20051;-69
2022/11/30 05:02:28;;;;;;;33.67;16.67;;;;;;;;;;5044985;28;20136;-70
2022/11/30 05:04:53;;;;;;;38.78;16.75;;;;;;;;;;5046267;28;20226;-69
2022/11/30 05:07:19;;;;;;;32.63;16.00;;;;;;;;;;5032847;28;20098;-69
2022/11/30 05:09:44;;;;;;;34.45;16.40;;;;;;;;;;5045752;28;20076;-69
2022/11/30 05:12:09;;;;;;;35.20;16.00;;;;;;;;;;5047508;28;20031;-68
2022/11/30 05:14:34;;;;;;;32.40;16.17;;;;;;;;;;5037228;28;20025;-68
2022/11/30 05:16:59;;;;;;;33.05;16.10;;;;;;;;;;5042314;28;20025;-69
2022/11/30 05:19:25;;;;;;;32.57;15.03;;;;;;;;;;5029932;28;20032;-69
2022/11/30 05:21:50;;;;;;;34.10;14.97;;;;;;;;;;5043818;28;20021;-69
2022/11/30 05:24:16;;;;;;;29.23;15.60;;;;;;;;;;5040504;28;20278;-69
2022/11/30 05:26:41;;;;;;;33.10;15.52;;;;;;;;;;5040024;28;20281;-69
2022/11/30 05:29:06;;;;;;;30.73;15.83;;;;;;;;;;5019084;28;20096;-69
2022/11/30 05:31:32;;;;;;;30.23;15.00;;;;;;;;;;5029347;28;20277;-69
2022/11/30 05:33:57;;;;;;;29.33;14.63;;;;;;;;;;5039414;28;20091;-69
2022/11/30 05:36:22;;;;;;;31.37;15.20;;;;;;;;;;5036521;28;20115;-69
2022/11/30 05:38:47;;;;;;;30.73;14.60;;;;;;;;;;5039115;28;20328;-70
2022/11/30 05:41:13;;;;;;;28.50;14.70;;;;;;;;;;5052978;28;20128;-69
2022/11/30 05:43:38;;;;;;;31.70;16.40;;;;;;;;;;5032791;28;20309;-69
2022/11/30 05:46:04;;;;;;;33.00;16.20;;;;;;;;;;5033072;28;20050;-69
2022/11/30 05:48:30;;;;;;;29.38;15.13;;;;;;;;;;5049647;28;20025;-68
2022/11/30 05:51:03;;;;;;;31.45;15.43;;;;;;;;;;5045455;28;20048;-69
2022/11/30 05:53:28;;;;;;;36.20;17.38;;;;;;;;;;5044934;28;20479;-69
2022/11/30 05:55:53;;;;;;;35.83;15.73;;;;;;;;;;5048165;28;20032;-69
2022/11/30 05:58:18;;;;;;;32.67;15.30;;;;;;;;;;5041485;28;20040;-69
2022/11/30 06:00:43;;;;;;;32.80;16.50;;;;;;;;;;5043158;28;20285;-69
2022/11/30 06:03:09;;;;;;;32.60;15.50;;;;;;;;;;5046250;28;20274;-68
2022/11/30 06:05:35;;;;;;;29.83;15.67;;;;;;;;;;5049312;28;20021;-69
2022/11/30 06:08:00;;;;;;;34.65;15.60;;;;;;;;;;5039717;28;20037;-69
2022/11/30 06:10:26;;;;;;;34.80;16.87;;;;;;;;;;5030333;28;20039;-68
2022/11/30 06:12:51;;;;;;;40.60;17.65;;;;;;;;;;5035817;28;20033;-69
2022/11/30 06:15:16;;;;;;;42.20;19.17;;;;;;;;;;5039571;28;20021;-69
2022/11/30 06:17:41;;;;;;;42.40;19.63;;;;;;;;;;5036409;28;20647;-69
2022/11/30 06:20:07;;;;;;;42.50;19.67;;;;;;;;;;5044539;28;20029;-69
2022/11/30 06:22:32;;;;;;;43.95;20.48;;;;;;;;;;5034332;28;20056;-70
2022/11/30 06:24:57;;;;;;;43.37;21.37;;;;;;;;;;5032537;28;20482;-69
2022/11/30 06:27:23;;;;;;;41.42;19.52;;;;;;;;;;5046751;28;20044;-70
2022/11/30 06:29:48;;;;;;;39.58;19.73;;;;;;;;;;5033616;28;20116;-69
2022/11/30 06:32:13;;;;;;;41.07;19.80;;;;;;;;;;5044731;28;20104;-69
2022/11/30 06:34:38;;;;;;;41.03;19.73;;;;;;;;;;5048072;28;20278;-69
2022/11/30 06:37:03;;;;;;;49.37;21.20;;;;;;;;;;5030018;28;20684;-68
2022/11/30 06:39:29;;;;;;;49.17;21.93;;;;;;;;;;5020770;28;20064;-70
2022/11/30 06:41:54;;;;;;;42.87;19.43;;;;;;;;;;5046355;28;20033;-69
2022/11/30 06:44:19;;;;;;;127.53;50.17;;;;;;;;;;5040338;28;20444;-69
2022/11/30 06:46:45;;;;;;;56.15;24.10;;;;;;;;;;5046383;28;20329;-69
2022/11/30 06:49:10;;;;;;;39.42;18.95;;;;;;;;;;5047614;28;20092;-70
2022/11/30 06:51:36;;;;;;;35.00;17.30;;;;;;;;;;5044848;28;20154;-70
2022/11/30 06:54:01;;;;;;;32.38;14.68;;;;;;;;;;5042347;28;20787;-69
2022/11/30 06:56:26;;;;;;;33.70;14.63;;;;;;;;;;5040513;28;20029;-69
2022/11/30 06:58:53;;;;;;;29.88;14.35;;;;;;;;;;5034790;28;20384;-69
2022/11/30 07:01:18;;;;;;;31.05;14.05;;;;;;;;;;5036785;28;20044;-70
2022/11/30 07:03:44;;;;;;;28.48;15.13;;;;;;;;;;5047815;28;20112;-70
2022/11/30 07:06:11;;;;;;;30.10;14.07;;;;;;;;;;5049773;28;20092;-70
2022/11/30 07:08:36;;;;;;;32.47;15.73;;;;;;;;;;5043066;28;20581;-69
2022/11/30 07:11:02;;;;;;;31.40;16.10;;;;;;;;;;5054319;28;20035;-69
2022/11/30 07:13:28;;;;;;;31.60;16.35;;;;;;;;;;5040238;28;20083;-69
2022/11/30 07:15:54;;;;;;;33.13;15.57;;;;;;;;;;5041805;28;20032;-69
2022/11/30 07:18:19;;;;;;;38.87;17.03;;;;;;;;;;5043236;28;20531;-69
2022/11/30 07:20:44;;;;;;;39.13;17.10;;;;;;;;;;5036431;28;20614;-69
2022/11/30 07:26:06;;;;;;;35.33;16.77;;;;;;;;;;5041624;28;20137;-69
2022/11/30 07:28:36;;;;;;;39.13;17.00;;;;;;;;;;5045792;28;20107;-69
2022/11/30 07:31:02;;;;;;;41.15;18.48;;;;;;;;;;5043762;28;20387;-69
2022/11/30 07:33:27;;;;;;;39.90;17.55;;;;;;;;;;5041003;28;20025;-68
2022/11/30 07:35:53;;;;;;;37.10;18.63;;;;;;;;;;5041146;28;20209;-69
2022/11/30 07:38:19;;;;;;;43.47;17.95;;;;;;;;;;5047826;28;20013;-69
2022/11/30 07:40:44;;;;;;;46.03;26.25;;;;;;;;;;5042061;28;20127;-73
2022/11/30 07:43:09;;;;;;;30.37;15.97;;;;;;;;;;5044245;28;20381;-74
2022/11/30 07:45:34;;;;;;;32.03;15.70;;;;;;;;;;5047922;28;20029;-69
2022/11/30 07:48:00;;;;;;;32.43;16.00;;;;;;;;;;5044908;28;20278;-69
2022/11/30 07:50:25;;;;;;;29.90;15.57;;;;;;;;;;5039088;28;20108;-69
2022/11/30 07:52:50;;;;;;;27.65;14.43;;;;;;;;;;5026191;28;20056;-69
2022/11/30 07:55:16;;;;;;;31.50;15.07;;;;;;;;;;5037161;28;20132;-69
2022/11/30 07:57:41;;;;;;;32.45;15.85;;;;;;;;;;5040940;28;20029;-69
2022/11/30 08:00:08;;;;;;;32.93;14.47;;;;;;;;;;5038193;28;20029;-69
2022/11/30 08:02:33;;;;;;;34.35;15.38;;;;;;;;;;5043874;28;20274;-69
2022/11/30 08:04:58;;;;;;;26.15;13.80;;;;;;;;;;5052505;28;20044;-69
2022/11/30 08:07:24;;;;;;;31.83;15.50;;;;;;;;;;5044059;28;20024;-69
2022/11/30 08:09:50;;;;;;;29.47;15.37;;;;;;;;;;5043499;28;20266;-69
2022/11/30 08:12:15;;;;;;;29.92;14.85;;;;;;;;;;5047764;28;20883;-69
2022/11/30 08:14:41;;;;;;;29.40;14.57;;;;;;;;;;5038958;28;20141;-69
2022/11/30 08:17:07;;;;;;;31.60;15.43;;;;;;;;;;5024482;28;20552;-69
2022/11/30 08:19:32;;;;;;;33.75;15.13;;;;;;;;;;5041347;28;20471;-68
2022/11/30 08:21:58;;;;;;;33.70;15.87;;;;;;;;;;5029513;28;20035;-69
2022/11/30 08:24:23;;;;;;;35.00;15.20;;;;;;;;;;5039376;28;20597;-69
2022/11/30 08:26:49;;;;;;;29.87;14.23;;;;;;;;;;5041881;28;20450;-69
2022/11/30 08:29:15;;;;;;;30.60;13.60;;;;;;;;;;5040999;28;20372;-69
2022/11/30 08:31:40;;;;;;;25.23;12.83;;;;;;;;;;5048096;28;20047;-68
2022/11/30 08:34:07;;;;;;;26.03;12.63;;;;;;;;;;5030416;28;20362;-69
2022/11/30 08:36:32;;;;;;;27.48;12.65;;;;;;;;;;5047133;28;20269;-69
2022/11/30 08:38:58;;;;;;;28.33;12.75;;;;;;;;;;5026748;28;20039;-69
2022/11/30 08:41:24;;;;;;;23.92;11.70;;;;;;;;;;5034230;28;20023;-69
2022/11/30 08:43:49;;;;;;;27.50;12.82;;;;;;;;;;5026213;28;20167;-69
2022/11/30 08:46:16;;;;;;;24.88;11.98;;;;;;;;;;5052637;28;20020;-69
2022/11/30 08:48:41;;;;;;;26.85;13.00;;;;;;;;;;5048500;28;20032;-69
2022/11/30 08:51:08;;;;;;;32.37;13.87;;;;;;;;;;5049184;28;20132;-69
2022/11/30 08:53:34;;;;;;;27.60;14.45;;;;;;;;;;5030376;28;20275;-70
2022/11/30 08:56:00;;;;;;;29.90;14.45;;;;;;;;;;5046894;28;20028;-69
2022/11/30 08:58:28;;;;;;;25.33;13.55;;;;;;;;;;5046375;28;20494;-69
2022/11/30 09:00:54;;;;;;;26.35;13.73;;;;;;;;;;5048836;28;20257;-69
2022/11/30 09:03:19;;;;;;;23.25;12.85;;;;;;;;;;5042047;28;20029;-69
2022/11/30 09:05:44;;;;;;;24.07;12.57;;;;;;;;;;5042058;28;20430;-68
2022/11/30 09:08:09;;;;;;;31.48;13.45;;;;;;;;;;5039729;28;20273;-69
2022/11/30 09:10:35;;;;;;;25.92;13.60;;;;;;;;;;5043833;28;20028;-69
2022/11/30 09:13:00;;;;;;;29.50;15.20;;;;;;;;;;5043044;28;20108;-69
2022/11/30 09:15:25;;;;;;;27.43;14.90;;;;;;;;;;5043034;28;20036;-69
2022/11/30 09:17:50;;;;;;;30.70;14.37;;;;;;;;;;5041627;28;20075;-69
2022/11/30 09:20:16;;;;;;;25.63;13.47;;;;;;;;;;5045404;28;20606;-70
2022/11/30 09:22:41;;;;;;;32.40;14.40;;;;;;;;;;5043891;28;20518;-69
2022/11/30 09:25:07;;;;;;;23.40;12.40;;;;;;;;;;5049615;28;20025;-69
2022/11/30 09:27:32;;;;;;;28.23;13.93;;;;;;;;;;5046202;28;20026;-69
2022/11/30 09:29:57;;;;;;;25.57;13.27;;;;;;;;;;5049774;28;20502;-69
2022/11/30 09:32:23;;;;;;;24.48;13.00;;;;;;;;;;5047299;28;20338;-69
2022/11/30 09:34:48;;;;;;;25.75;13.63;;;;;;;;;;5046038;28;20040;-68
2022/11/30 09:37:14;;;;;;;27.63;13.40;;;;;;;;;;5043973;28;20036;-69
2022/11/30 09:39:39;;;;;;;27.13;14.70;;;;;;;;;;5045226;28;20025;-69
2022/11/30 09:42:07;;;;;;;27.40;14.60;;;;;;;;;;5042329;28;20661;-69
2022/11/30 09:44:50;;;;;;;27.85;14.50;;;;;;;;;;5042811;28;20016;-69
2022/11/30 09:47:38;;;;;;;24.75;13.25;;;;;;;;;;5038774;28;20037;-70
2022/11/30 09:50:17;;;;;;;28.20;13.23;;;;;;;;;;5043147;28;20512;-70
2022/11/30 09:52:43;;;;;;;;;;;;;;;;;;5047176;28;20029;-68
2022/11/30 09:55:09;;;;;;;26.98;12.45;;;;;;;;;;5046921;28;20317;-69
2022/11/30 09:57:48;;;;;;;26.63;12.68;;;;;;;;;;5047213;28;20033;-69
2022/11/30 10:00:14;;;;;;;;;;;;;;;;;;5045207;28;20025;-69
2022/11/30 10:02:39;;;;;;;26.35;14.23;;;;;;;;;;5049295;28;19923;-68
2022/11/30 10:05:25;;;;;;;33.45;14.60;;;;;;;;;;5045488;28;20028;-69
2022/11/30 10:07:56;;;;;;;25.55;13.27;;;;;;;;;;5044082;28;20394;-70
2022/11/30 10:10:34;;;;;;;32.05;14.40;;;;;;;;;;5041862;28;20108;-69
2022/11/30 10:13:07;;;;;;;27.00;13.52;;;;;;;;;;5032144;28;20031;-69
2022/11/30 10:15:47;;;;;;;30.17;14.60;;;;;;;;;;5025165;28;20442;-69
2022/11/30 10:18:12;;;;;;;;;;;;;;;;;;5041189;28;20024;-69
2022/11/30 10:20:50;;;;;;;27.83;14.10;;;;;;;;;;5046321;28;20302;-69
2022/11/30 10:23:28;;;;;;;35.60;15.70;;;;;;;;;;5044165;28;20041;-69
2022/11/30 10:25:57;;;;;;;30.70;16.02;;;;;;;;;;5040909;28;20021;-69
2022/11/30 10:28:29;;;;;;;29.38;15.32;;;;;;;;;;5049112;28;20117;-69
2022/11/30 10:30:54;;;;;;;31.65;16.52;;;;;;;;;;5026560;28;20075;-69
2022/11/30 10:33:24;;;;;;;34.75;16.45;;;;;;;;;;5050701;28;20037;-69
2022/11/30 10:35:51;;;;;;;29.67;15.02;;;;;;;;;;5046124;28;20017;-69
2022/11/30 10:38:23;;;;;;;32.05;14.15;;;;;;;;;;5043794;28;20028;-69
2022/11/30 10:40:49;;;;;;;30.33;14.90;;;;;;;;;;5053346;28;20103;-69
2022/11/30 10:43:21;;;;;;;30.93;13.80;;;;;;;;;;5052580;28;20100;-69
2022/11/30 10:45:47;;;;;;;30.45;15.10;;;;;;;;;;5046392;28;20341;-69
2022/11/30 10:48:13;;;;;;;26.23;13.73;;;;;;;;;;5050065;28;20024;-69
2022/11/30 10:50:38;;;;;;;31.93;14.20;;;;;;;;;;5046757;28;20435;-69
2022/11/30 10:53:04;;;;;;;24.95;13.43;;;;;;;;;;5052496;28;20033;-69
2022/11/30 10:55:34;;;;;;;25.42;13.68;;;;;;;;;;5033691;28;20390;-69
2022/11/30 10:58:13;;;;;;;33.08;15.07;;;;;;;;;;5036257;28;20014;-70
2022/11/30 11:00:38;;;;;;;27.15;14.73;;;;;;;;;;5046594;28;20036;-69
2022/11/30 11:03:21;;;;;;;31.77;15.53;;;;;;;;;;5041972;28;20017;-69
2022/11/30 11:05:46;;;;;;;29.35;14.40;;;;;;;;;;5049913;28;20020;-69
2022/11/30 11:08:23;;;;;;;26.98;14.23;;;;;;;;;;5041114;28;20017;-69
2022/11/30 11:10:50;;;;;;;24.55;13.45;;;;;;;;;;5010118;28;20060;-69
2022/11/30 11:13:16;;;;;;;29.27;13.43;;;;;;;;;;5040945;28;20076;-69
2022/11/30 11:15:54;;;;;;;29.77;14.05;;;;;;;;;;5040940;28;20029;-68
2022/11/30 11:18:33;;;;;;;26.90;12.90;;;;;;;;;;5039717;28;20026;-69
2022/11/30 11:21:19;;;;;;;26.90;14.02;;;;;;;;;;5037266;28;20025;-70
2022/11/30 11:23:45;;;;;;;24.10;13.02;;;;;;;;;;5050552;28;20473;-69
2022/11/30 11:26:16;;;;;;;23.27;13.25;;;;;;;;;;5047161;28;20087;-69
2022/11/30 11:28:46;;;;;;;25.92;12.85;;;;;;;;;;5045439;28;20036;-69
2022/11/30 11:31:30;;;;;;;22.92;12.30;;;;;;;;;;5041043;28;20032;-69
2022/11/30 11:33:55;;;;;;;25.45;12.25;;;;;;;;;;5048962;28;20052;-69
2022/11/30 11:36:28;;;;;;;22.83;12.02;;;;;;;;;;5031468;28;20053;-69
2022/11/30 11:38:53;;;;;;;24.27;11.63;;;;;;;;;;5040363;28;20100;-69
2022/11/30 11:41:24;;;;;;;26.33;13.52;;;;;;;;;;5053442;28;20108;-69
2022/11/30 11:44:20;;;;;;;25.10;13.13;;;;;;;;;;5046324;28;20029;-70
2022/11/30 11:47:02;;;;;;;23.98;12.57;;;;;;;;;;5048016;28;20611;-70
2022/11/30 11:49:28;;;;;;;23.67;13.43;;;;;;;;;;5052013;28;20450;-69
2022/11/30 11:52:02;;;;;;;29.73;13.77;;;;;;;;;;5048096;28;20025;-69
2022/11/30 11:54:42;;;;;;;26.95;14.02;;;;;;;;;;5032003;28;20027;-69
2022/11/30 11:57:14;;;;;;;28.40;14.55;;;;;;;;;;5048863;28;20021;-70
2022/11/30 11:59:44;;;;;;;30.42;14.52;;;;;;;;;;5048557;28;20111;-69
2022/11/30 12:02:09;;;;;;;;;;;;;;;;;;5046431;28;20021;-68
2022/11/30 12:04:43;;;;;;;24.52;12.88;;;;;;;;;;5050115;28;19931;-69
2022/11/30 12:07:15;;;;;;;26.63;14.07;;;;;;;;;;5047266;28;20033;-69
2022/11/30 12:09:45;;;;;;;29.77;13.88;;;;;;;;;;5040881;28;20035;-68
2022/11/30 12:12:11;;;;;;;26.17;13.13;;;;;;;;;;5050336;28;20477;-69
2022/11/30 12:14:36;;;;;;;25.27;13.15;;;;;;;;;;5045802;28;20053;-69
2022/11/30 12:17:08;;;;;;;26.92;12.82;;;;;;;;;;5042189;28;20032;-72
2022/11/30 12:19:53;;;;;;;23.30;12.27;;;;;;;;;;5044966;28;20033;-72
2022/11/30 12:22:56;;;;;;;26.33;13.85;;;;;;;;;;5046436;28;20044;-71
2022/11/30 12:25:45;;;;;;;22.98;12.30;;;;;;;;;;4988042;28;20026;-72
2022/11/30 12:28:29;;;;;;;24.60;13.05;;;;;;;;;;4981832;28;20493;-71
2022/11/30 12:30:55;;;;;;;24.38;13.82;;;;;;;;;;4985595;28;20041;-72
2022/11/30 12:33:39;;;;;;;25.63;13.90;;;;;;;;;;4985448;28;20109;-69
2022/11/30 12:36:17;;;;;;;27.35;12.93;;;;;;;;;;4975941;28;20121;-68
2022/11/30 12:38:54;;;;;;;26.50;13.15;;;;;;;;;;4974524;28;20034;-69
2022/11/30 12:41:28;;;;;;;28.10;14.38;;;;;;;;;;4991041;28;20034;-69
2022/11/30 12:43:53;;;;;;;23.90;13.88;;;;;;;;;;4986591;28;20042;-69
2022/11/30 12:46:24;;;;;;;26.87;13.77;;;;;;;;;;4990942;28;20522;-69
2022/11/30 12:48:54;;;;;;;29.85;13.75;;;;;;;;;;4988758;28;20037;-70
2022/11/30 12:51:22;;;;;;;30.25;15.25;;;;;;;;;;4986623;28;20062;-69
2022/11/30 12:53:57;;;;;;;34.40;15.50;;;;;;;;;;4981331;28;20512;-69
2022/11/30 12:56:29;;;;;;;27.27;14.18;;;;;;;;;;5021121;28;20075;-69
2022/11/30 12:59:00;;;;;;;26.65;14.88;;;;;;;;;;5042557;28;20025;-69
2022/11/30 13:01:28;;;;;;;32.45;14.18;;;;;;;;;;5030673;28;20036;-69
2022/11/30 13:04:06;;;;;;;26.75;14.20;;;;;;;;;;5035093;28;20391;-69
2022/11/30 13:06:39;;;;;;;26.75;14.13;;;;;;;;;;5040563;28;20013;-68
2022/11/30 13:09:15;;;;;;;25.70;14.70;;;;;;;;;;5043324;28;20429;-69
2022/11/30 13:11:44;;;;;;;27.25;14.88;;;;;;;;;;5037579;28;20041;-69
2022/11/30 13:14:20;;;;;;;27.55;15.25;;;;;;;;;;5170291;27;20411;-68
2022/11/30 13:16:47;;;;;;;36.25;16.08;;;;;;;;;;5167743;27;20034;-67
2022/11/30 13:19:18;;;;;;;27.00;14.90;;;;;;;;;;5169402;27;20376;-67
2022/11/30 13:21:45;;;;;;;29.40;15.25;;;;;;;;;;5168857;27;20058;-67
2022/11/30 13:24:33;;;;;;;31.73;16.13;;;;;;;;;;5143476;27;20025;-68
2022/11/30 13:27:12;;;;;;;26.60;14.77;;;;;;;;;;5164789;27;20079;-67
2022/11/30 13:29:40;;;;;;;25.60;13.95;;;;;;;;;;5168257;27;20513;-67
2022/11/30 13:32:13;;;;;;;34.38;15.95;;;;;;;;;;5165099;27;20035;-68
2022/11/30 13:34:38;;;;;;;27.83;14.85;;;;;;;;;;5148801;27;20034;-67
2022/11/30 13:37:10;;;;;;;28.60;14.27;;;;;;;;;;5169859;27;20383;-68
2022/11/30 13:39:35;;;;;;;29.08;15.15;;;;;;;;;;5168052;27;20594;-68
2022/11/30 13:42:00;;;;;;;25.30;14.23;;;;;;;;;;5169118;27;20093;-67
2022/11/30 13:44:28;;;;;;;26.67;13.93;;;;;;;;;;5166721;27;20142;-66
2022/11/30 13:46:54;;;;;;;30.95;16.10;;;;;;;;;;5168864;27;20021;-66
2022/11/30 13:49:19;;;;;;;29.60;15.77;;;;;;;;;;5168481;27;20154;-68
2022/11/30 13:51:44;;;;;;;32.43;15.10;;;;;;;;;;5149277;27;20022;-67
2022/11/30 13:54:28;;;;;;;24.42;14.48;;;;;;;;;;5167551;27;20227;-68
2022/11/30 13:56:53;;;;;;;31.17;15.45;;;;;;;;;;5166615;27;20062;-68
2022/11/30 13:59:22;;;;;;;28.63;14.80;;;;;;;;;;5166641;27;20095;-67
2022/11/30 14:01:47;;;;;;;28.05;15.05;;;;;;;;;;5168703;27;20023;-67
2022/11/30 14:04:19;;;;;;;35.13;15.35;;;;;;;;;;5168455;27;20075;-67
2022/11/30 14:06:51;;;;;;;27.55;14.00;;;;;;;;;;5162955;27;20114;-67
2022/11/30 14:09:35;;;;;;;27.23;13.90;;;;;;;;;;5147376;27;20480;-67
2022/11/30 14:12:21;;;;;;;26.45;13.77;;;;;;;;;;5164274;27;20018;-67
2022/11/30 14:14:47;;;;;;;40.95;20.27;;;;;;;;;;5157563;27;20384;-66
2022/11/30 14:17:13;;;;;;;43.55;22.73;;;;;;;;;;5166008;27;20025;-67
2022/11/30 14:19:42;;;;;;;53.90;23.30;;;;;;;;;;5150661;27;20148;-71
2022/11/30 14:22:09;;;;;;;64.45;28.02;;;;;;;;;;5164546;27;20037;-71
2022/11/30 14:24:35;;;;;;;45.47;19.42;;;;;;;;;;5161036;27;20138;-72
2022/11/30 14:27:01;;;;;;;41.40;19.60;;;;;;;;;;5133697;27;20048;-72